Time;durP1;ratioP1;P1;durP2;ratioP2;P2;SDS_P1;SDS_P2;PMS_P1;PMS_P2;Temp;Humidity;BMP_temperature;BMP_pressure;BME280_temperature;BME280_humidity;BME280_pressure;Samples;Min_cycle;Max_cycle;Signal;HPM_P1;HPM_P2
2022/11/27 00:01:23;;;;;;;18.92;11.50;;;6.90;89.10;;;;;;4986652;28;20385;-73
2022/11/27 00:03:49;;;;;;;19.55;11.88;;;6.90;89.00;;;;;;4988450;28;20041;-72
2022/11/27 00:06:19;;;;;;;19.13;11.77;;;6.90;89.00;;;;;;4987642;28;20025;-74
2022/11/27 00:08:45;;;;;;;21.05;12.15;;;6.90;89.00;;;;;;4989522;28;20034;-72
2022/11/27 00:11:14;;;;;;;21.50;12.35;;;6.90;89.00;;;;;;4983835;28;20058;-75
2022/11/27 00:13:40;;;;;;;20.17;11.38;;;6.90;89.10;;;;;;4988149;28;20034;-73
2022/11/27 00:16:06;;;;;;;21.02;11.98;;;6.90;89.10;;;;;;4987159;28;20546;-73
2022/11/27 00:18:33;;;;;;;20.80;13.98;;;6.90;89.10;;;;;;4991763;28;20394;-74
2022/11/27 00:21:13;;;;;;;24.05;14.43;;;6.90;89.10;;;;;;4989187;28;20128;-72
2022/11/27 00:23:39;;;;;;;22.48;12.55;;;6.90;89.20;;;;;;4994656;28;20042;-73
2022/11/27 00:26:06;;;;;;;26.75;14.68;;;6.90;89.00;;;;;;4983305;28;20367;-71
2022/11/27 00:28:32;;;;;;;26.25;14.18;;;6.90;89.00;;;;;;4994050;28;21026;-72
2022/11/27 00:31:05;;;;;;;26.88;15.27;;;6.90;88.90;;;;;;4991811;28;20066;-74
2022/11/27 00:33:30;;;;;;;21.73;14.40;;;6.90;88.70;;;;;;4994886;28;20050;-72
2022/11/27 00:36:00;;;;;;;26.35;14.07;;;6.90;88.80;;;;;;4985176;28;20041;-72
2022/11/27 00:38:26;;;;;;;20.83;13.27;;;7.00;88.70;;;;;;4988777;28;20040;-73
2022/11/27 00:40:51;;;;;;;19.58;11.45;;;7.00;88.70;;;;;;4991941;28;20035;-72
2022/11/27 00:43:17;;;;;;;19.05;12.00;;;7.00;88.50;;;;;;4987731;28;20050;-73
2022/11/27 00:45:47;;;;;;;16.85;11.25;;;7.00;88.50;;;;;;4996042;28;20065;-74
2022/11/27 00:48:12;;;;;;;17.13;11.75;;;7.00;88.30;;;;;;4989258;28;20554;-74
2022/11/27 00:50:38;;;;;;;18.17;11.25;;;7.00;88.40;;;;;;4993331;28;20041;-72
2022/11/27 00:53:04;;;;;;;16.38;10.43;;;7.00;88.30;;;;;;4992169;28;20038;-74
2022/11/27 00:55:30;;;;;;;16.05;10.05;;;7.00;88.20;;;;;;4986076;28;20113;-73
2022/11/27 00:57:55;;;;;;;20.85;10.35;;;7.00;88.20;;;;;;4989765;28;20069;-76
2022/11/27 01:00:22;;;;;;;19.55;10.80;;;7.00;88.20;;;;;;4991917;28;20035;-72
2022/11/27 01:02:47;;;;;;;19.02;10.75;;;7.00;88.20;;;;;;4990669;28;20146;-72
2022/11/27 01:05:13;;;;;;;23.33;11.02;;;7.00;88.00;;;;;;4994336;28;20121;-75
2022/11/27 01:07:38;;;;;;;16.65;10.25;;;7.00;88.10;;;;;;4994754;28;20371;-72
2022/11/27 01:10:05;;;;;;;17.73;10.82;;;7.10;88.00;;;;;;4987704;28;20075;-73
2022/11/27 01:12:30;;;;;;;17.45;10.98;;;7.00;88.00;;;;;;4994829;28;20034;-72
2022/11/27 01:14:56;;;;;;;17.45;9.52;;;7.10;88.00;;;;;;4996720;28;20042;-73
2022/11/27 01:17:22;;;;;;;17.58;11.07;;;7.00;87.80;;;;;;4992939;28;20061;-72
2022/11/27 01:19:48;;;;;;;16.95;10.55;;;7.00;87.80;;;;;;4989465;28;20078;-73
2022/11/27 01:22:13;;;;;;;19.17;11.65;;;7.00;87.90;;;;;;4988598;28;20042;-73
2022/11/27 01:24:39;;;;;;;18.67;10.18;;;7.00;88.00;;;;;;4989840;28;20039;-73
2022/11/27 01:27:04;;;;;;;19.05;10.88;;;7.10;87.90;;;;;;4993449;28;20030;-74
2022/11/27 01:29:30;;;;;;;21.02;11.02;;;7.10;87.80;;;;;;4984346;28;20034;-73
2022/11/27 01:31:56;;;;;;;19.70;10.88;;;7.10;87.70;;;;;;4989389;28;20039;-71
2022/11/27 01:34:21;;;;;;;20.63;11.77;;;7.10;87.60;;;;;;4996027;28;20048;-73
2022/11/27 01:36:47;;;;;;;19.83;11.00;;;7.10;87.60;;;;;;4989358;28;20065;-74
2022/11/27 01:39:18;;;;;;;18.42;9.55;;;7.20;87.50;;;;;;4983421;28;20372;-72
2022/11/27 01:41:45;;;;;;;17.98;9.55;;;7.10;87.40;;;;;;4992048;28;20100;-73
2022/11/27 01:44:23;;;;;;;19.63;10.23;;;7.20;87.40;;;;;;4994132;28;20113;-74
2022/11/27 01:46:54;;;;;;;21.67;11.18;;;7.20;87.30;;;;;;4989589;28;20484;-76
2022/11/27 01:49:36;;;;;;;19.48;10.45;;;7.20;87.30;;;;;;4989658;28;20117;-75
2022/11/27 01:52:07;;;;;;;17.52;10.30;;;7.20;87.40;;;;;;4991184;28;20034;-74
2022/11/27 01:55:11;;;;;;;18.25;11.20;;;7.30;87.30;;;;;;4993554;28;20045;-74
2022/11/27 01:57:44;;;;;;;16.67;10.32;;;7.20;87.30;;;;;;4988167;28;20096;-74
2022/11/27 02:00:13;;;;;;;20.83;10.13;;;7.30;87.10;;;;;;4982689;28;20064;-74
2022/11/27 02:02:40;;;;;;;21.52;11.15;;;7.30;87.10;;;;;;4991599;28;20027;-75
2022/11/27 02:05:06;;;;;;;18.17;9.75;;;7.30;87.00;;;;;;4989338;28;20078;-74
2022/11/27 02:07:32;;;;;;;17.02;9.15;;;7.40;87.00;;;;;;4992564;28;20058;-74
2022/11/27 02:09:57;;;;;;;18.00;9.98;;;7.40;87.00;;;;;;4991224;28;20030;-75
2022/11/27 02:12:43;;;;;;;18.90;9.68;;;7.40;86.70;;;;;;4984379;28;20038;-75
2022/11/27 02:15:21;;;;;;;18.58;9.98;;;7.40;86.80;;;;;;4996084;28;20489;-72
2022/11/27 02:18:09;;;;;;;19.88;9.15;;;7.50;86.80;;;;;;4991074;28;21523;-75
2022/11/27 02:21:09;;;;;;;15.13;8.70;;;7.50;87.00;;;;;;4989262;28;20046;-74
2022/11/27 02:23:58;;;;;;;18.60;8.90;;;7.50;87.20;;;;;;4986435;28;20320;-74
2022/11/27 02:26:44;;;;;;;19.25;8.80;;;7.60;87.50;;;;;;4990960;28;20496;-73
2022/11/27 02:29:13;;;;;;;17.58;9.10;;;7.50;87.60;;;;;;5003597;28;20042;-73
2022/11/27 02:31:45;;;;;;;19.45;9.40;;;7.60;87.70;;;;;;4996014;28;20341;-72
2022/11/27 02:34:19;;;;;;;21.35;9.65;;;7.60;87.80;;;;;;4984438;28;20034;-72
2022/11/27 02:36:52;;;;;;;20.88;9.50;;;7.50;87.80;;;;;;4992430;28;20034;-74
2022/11/27 02:39:25;;;;;;;19.60;9.85;;;7.60;87.90;;;;;;4996065;28;20092;-73
2022/11/27 02:42:00;;;;;;;20.23;9.73;;;7.60;88.00;;;;;;4985522;28;20101;-72
2022/11/27 02:44:31;;;;;;;20.92;9.82;;;7.60;88.00;;;;;;4984446;28;20379;-73
2022/11/27 02:46:58;;;;;;;19.02;8.90;;;7.50;88.10;;;;;;4987662;28;20101;-78
2022/11/27 02:49:24;;;;;;;21.58;9.55;;;7.60;88.10;;;;;;4987478;28;20433;-75
2022/11/27 02:51:56;;;;;;;19.15;9.80;;;7.60;88.20;;;;;;4986495;28;20038;-73
2022/11/27 02:54:28;;;;;;;22.70;9.98;;;7.50;88.30;;;;;;4988128;28;20118;-78
2022/11/27 02:56:57;;;;;;;20.08;8.70;;;7.60;88.40;;;;;;4986260;28;20034;-74
2022/11/27 02:59:25;;;;;;;24.88;9.52;;;7.60;88.50;;;;;;4993333;28;20037;-72
2022/11/27 03:02:01;;;;;;;19.20;8.75;;;7.50;88.60;;;;;;4989255;28;20077;-73
2022/11/27 03:04:38;;;;;;;19.83;7.97;;;7.50;88.80;;;;;;4987418;28;20046;-74
2022/11/27 03:07:14;;;;;;;22.05;9.50;;;7.50;88.90;;;;;;5008378;28;20413;-71
2022/11/27 03:09:45;;;;;;;18.48;9.00;;;7.40;88.90;;;;;;4992481;28;20149;-74
2022/11/27 03:12:12;;;;;;;20.10;9.73;;;7.40;88.80;;;;;;4991038;28;20142;-74
2022/11/27 03:14:40;;;;;;;24.15;9.05;;;7.40;88.80;;;;;;4992069;28;20081;-74
2022/11/27 03:17:18;;;;;;;21.05;8.45;;;7.50;88.80;;;;;;4984139;28;20477;-74
2022/11/27 03:20:04;;;;;;;18.35;8.60;;;7.40;88.80;;;;;;4988809;28;20053;-74
2022/11/27 03:22:30;;;;;;;16.67;8.38;;;7.50;88.80;;;;;;4984348;28;20352;-74
2022/11/27 03:24:57;;;;;;;20.45;8.55;;;7.40;88.70;;;;;;4988701;28;20133;-76
2022/11/27 03:27:29;;;;;;;18.75;7.95;;;7.40;88.70;;;;;;4987679;28;20081;-74
2022/11/27 03:30:00;;;;;;;18.05;8.45;;;7.40;88.70;;;;;;4988985;28;20034;-74
2022/11/27 03:32:29;;;;;;;14.80;8.40;;;7.40;88.50;;;;;;4985943;28;20443;-77
2022/11/27 03:34:55;;;;;;;18.63;8.15;;;7.40;88.30;;;;;;4994717;28;20034;-74
2022/11/27 03:37:22;;;;;;;13.57;8.07;;;7.40;88.30;;;;;;4988523;28;20040;-75
2022/11/27 03:39:48;;;;;;;17.25;8.27;;;7.40;88.30;;;;;;4992478;28;20030;-75
2022/11/27 03:42:52;;;;;;;18.67;7.65;;;7.40;88.20;;;;;;4984625;28;20058;-73
2022/11/27 03:45:29;;;;;;;16.85;8.27;;;7.50;88.20;;;;;;4965317;28;20176;-71
2022/11/27 03:48:04;;;;;;;20.25;8.68;;;7.40;88.20;;;;;;4965521;28;20529;-73
2022/11/27 03:50:43;;;;;;;19.42;8.88;;;7.40;88.20;;;;;;4983101;28;20455;-72
2022/11/27 03:53:30;;;;;;;17.05;7.78;;;7.40;88.40;;;;;;4983953;28;20046;-73
2022/11/27 03:55:58;;;;;;;16.77;7.47;;;7.40;88.50;;;;;;4984679;28;20129;-74
2022/11/27 03:58:50;;;;;;;16.13;7.97;;;7.30;88.50;;;;;;4989132;28;20474;-73
2022/11/27 04:01:20;;;;;;;17.85;6.88;;;7.30;88.50;;;;;;4986550;28;20037;-74
2022/11/27 04:03:46;;;;;;;14.13;6.85;;;7.30;88.70;;;;;;4997991;28;20073;-73
2022/11/27 04:06:11;;;;;;;20.63;7.03;;;7.30;88.80;;;;;;4994036;28;20058;-71
2022/11/27 04:08:38;;;;;;;18.55;7.75;;;7.30;89.00;;;;;;4992629;28;20126;-73
2022/11/27 04:11:04;;;;;;;16.70;7.40;;;7.30;89.10;;;;;;4990648;28;20042;-73
2022/11/27 04:13:30;;;;;;;16.50;6.22;;;7.30;89.20;;;;;;4989931;28;20034;-72
2022/11/27 04:15:59;;;;;;;16.73;6.90;;;7.30;89.30;;;;;;4997726;28;20038;-72
2022/11/27 04:18:25;;;;;;;18.10;6.60;;;7.30;89.20;;;;;;5004062;28;20049;-74
2022/11/27 04:20:51;;;;;;;16.83;6.93;;;7.30;89.20;;;;;;5000003;28;20042;-72
2022/11/27 04:23:16;;;;;;;18.17;6.75;;;7.30;89.20;;;;;;4991997;28;20527;-72
2022/11/27 04:25:42;;;;;;;20.50;7.35;;;7.30;89.20;;;;;;4993678;28;20143;-73
2022/11/27 04:28:07;;;;;;;23.13;7.78;;;7.30;89.20;;;;;;4987656;28;20046;-75
2022/11/27 04:30:33;;;;;;;19.00;7.15;;;7.30;89.30;;;;;;4995888;28;20031;-76
2022/11/27 04:32:59;;;;;;;20.77;7.38;;;7.30;89.20;;;;;;4988786;28;20041;-75
2022/11/27 04:35:24;;;;;;;18.52;6.57;;;7.30;89.30;;;;;;4990885;28;20044;-74
2022/11/27 04:37:50;;;;;;;20.75;7.75;;;7.30;89.30;;;;;;4990041;28;20451;-73
2022/11/27 04:40:16;;;;;;;16.60;6.82;;;7.30;89.10;;;;;;4991723;28;20038;-74
2022/11/27 04:42:41;;;;;;;22.95;7.15;;;7.20;89.20;;;;;;4997519;28;20082;-78
2022/11/27 04:45:08;;;;;;;16.40;6.72;;;7.20;89.10;;;;;;4992734;28;20137;-74
2022/11/27 04:47:34;;;;;;;19.55;7.13;;;7.20;89.10;;;;;;4992575;28;20034;-77
2022/11/27 04:49:59;;;;;;;19.38;6.95;;;7.20;89.30;;;;;;4996763;28;20030;-75
2022/11/27 04:52:25;;;;;;;17.00;6.47;;;7.20;89.30;;;;;;4990710;28;20450;-73
2022/11/27 04:54:50;;;;;;;18.98;6.47;;;7.20;89.30;;;;;;4992348;28;20347;-73
2022/11/27 04:57:16;;;;;;;23.10;6.63;;;7.20;89.30;;;;;;4990579;28;20069;-74
2022/11/27 04:59:42;;;;;;;20.13;6.45;;;7.20;89.30;;;;;;4995209;28;20367;-75
2022/11/27 05:02:07;;;;;;;17.10;6.65;;;7.20;89.20;;;;;;4989051;28;20065;-73
2022/11/27 05:04:33;;;;;;;18.52;6.85;;;7.20;89.30;;;;;;4997085;28;20097;-74
2022/11/27 05:06:59;;;;;;;19.20;7.03;;;7.20;89.30;;;;;;4989094;28;20116;-79
2022/11/27 05:09:24;;;;;;;15.60;6.55;;;7.20;89.50;;;;;;4993614;28;20359;-75
2022/11/27 05:11:50;;;;;;;21.75;7.30;;;7.10;89.50;;;;;;4992653;28;20034;-74
2022/11/27 05:14:20;;;;;;;15.25;6.63;;;7.10;89.60;;;;;;5002976;28;20022;-74
2022/11/27 05:16:51;;;;;;;17.13;7.15;;;7.20;89.80;;;;;;4996654;28;20049;-78
2022/11/27 05:19:18;;;;;;;16.63;6.88;;;7.20;89.80;;;;;;4989931;28;20508;-73
2022/11/27 05:21:45;;;;;;;16.55;7.10;;;7.20;89.90;;;;;;4992676;28;20467;-74
2022/11/27 05:24:11;;;;;;;16.13;6.35;;;7.20;89.80;;;;;;4990503;28;20470;-73
2022/11/27 05:26:37;;;;;;;18.77;7.63;;;7.10;89.90;;;;;;4991126;28;20073;-75
2022/11/27 05:29:03;;;;;;;14.88;6.60;;;7.10;90.00;;;;;;4990466;28;20510;-73
2022/11/27 05:31:29;;;;;;;14.80;7.18;;;7.10;90.00;;;;;;4988997;28;20473;-73
2022/11/27 05:33:55;;;;;;;15.35;6.97;;;7.20;90.20;;;;;;4988847;28;20058;-74
2022/11/27 05:36:20;;;;;;;20.05;6.88;;;7.10;90.20;;;;;;4988758;28;20175;-73
2022/11/27 05:38:46;;;;;;;15.82;7.18;;;7.10;90.10;;;;;;4988168;28;20088;-73
2022/11/27 05:41:12;;;;;;;16.13;8.27;;;7.10;90.20;;;;;;4983471;28;20112;-76
2022/11/27 05:43:37;;;;;;;15.48;7.43;;;7.20;90.30;;;;;;4989557;28;20039;-73
2022/11/27 05:46:09;;;;;;;15.43;7.00;;;7.10;90.40;;;;;;4991070;28;20022;-74
2022/11/27 05:48:36;;;;;;;16.15;7.43;;;7.10;90.40;;;;;;4989186;28;20410;-75
2022/11/27 05:51:02;;;;;;;13.40;6.80;;;7.10;90.50;;;;;;4989330;28;20543;-75
2022/11/27 05:53:28;;;;;;;16.65;6.55;;;7.10;90.60;;;;;;4983731;28;20129;-75
2022/11/27 05:55:54;;;;;;;12.70;7.55;;;7.10;90.70;;;;;;4991539;28;20034;-73
2022/11/27 05:58:20;;;;;;;16.33;7.95;;;7.10;90.70;;;;;;4996720;28;20026;-76
2022/11/27 06:00:45;;;;;;;15.10;7.45;;;7.10;90.70;;;;;;4991009;28;20489;-73
2022/11/27 06:03:11;;;;;;;17.13;7.45;;;7.10;90.90;;;;;;4994270;28;20045;-73
2022/11/27 06:05:40;;;;;;;19.30;7.35;;;7.00;91.00;;;;;;4992926;28;20462;-74
2022/11/27 06:08:06;;;;;;;15.82;7.50;;;7.10;91.00;;;;;;4987835;28;20030;-74
2022/11/27 06:10:32;;;;;;;16.20;8.05;;;7.10;90.90;;;;;;4991462;28;20367;-73
2022/11/27 06:12:57;;;;;;;15.82;7.82;;;7.10;91.00;;;;;;4995132;28;20105;-75
2022/11/27 06:15:23;;;;;;;15.20;7.38;;;7.10;91.00;;;;;;4988879;28;20042;-72
2022/11/27 06:17:49;;;;;;;16.35;7.30;;;7.00;91.10;;;;;;4991435;28;20026;-75
2022/11/27 06:20:14;;;;;;;13.88;7.25;;;7.00;91.10;;;;;;4988697;28;20038;-76
2022/11/27 06:22:40;;;;;;;16.63;6.90;;;7.10;91.20;;;;;;4994477;28;20435;-75
2022/11/27 06:25:06;;;;;;;16.58;6.97;;;7.00;91.20;;;;;;4986725;28;20046;-76
2022/11/27 06:27:33;;;;;;;17.23;7.38;;;7.10;91.20;;;;;;4993181;28;20037;-75
2022/11/27 06:29:59;;;;;;;16.15;7.13;;;7.00;91.20;;;;;;4991084;28;20353;-74
2022/11/27 06:32:24;;;;;;;14.88;7.22;;;7.10;91.30;;;;;;4988009;28;20468;-74
2022/11/27 06:34:50;;;;;;;16.08;8.00;;;7.10;91.30;;;;;;4988721;28;20140;-74
2022/11/27 06:37:16;;;;;;;15.07;7.60;;;7.10;91.40;;;;;;4993880;28;20069;-72
2022/11/27 06:39:41;;;;;;;14.65;7.15;;;7.00;91.30;;;;;;4989591;28;21357;-76
2022/11/27 06:42:07;;;;;;;16.98;6.93;;;7.10;91.30;;;;;;4990978;28;20106;-73
2022/11/27 06:44:33;;;;;;;16.92;7.40;;;7.00;91.30;;;;;;4993378;28;20081;-74
2022/11/27 06:46:58;;;;;;;16.60;7.57;;;7.10;91.30;;;;;;5005473;28;20466;-74
2022/11/27 06:49:24;;;;;;;18.67;8.20;;;7.00;91.40;;;;;;4986158;28;20043;-73
2022/11/27 06:51:49;;;;;;;19.45;6.78;;;7.00;91.30;;;;;;5010942;28;20544;-74
2022/11/27 06:54:15;;;;;;;16.83;6.95;;;7.00;91.40;;;;;;4988936;28;20042;-74
2022/11/27 06:56:41;;;;;;;17.20;7.72;;;7.10;91.40;;;;;;4986278;28;20034;-74
2022/11/27 06:59:06;;;;;;;13.85;6.85;;;7.10;91.30;;;;;;4985467;28;20100;-75
2022/11/27 07:01:33;;;;;;;17.17;6.78;;;7.10;91.30;;;;;;4990484;28;20046;-76
2022/11/27 07:03:59;;;;;;;21.08;6.95;;;7.10;91.20;;;;;;4988351;28;20034;-73
2022/11/27 07:06:27;;;;;;;17.67;7.25;;;7.00;91.40;;;;;;4988165;28;20037;-74
2022/11/27 07:08:54;;;;;;;16.30;6.75;;;7.00;91.50;;;;;;4985849;28;20046;-77
2022/11/27 07:11:22;;;;;;;15.48;6.70;;;7.00;91.40;;;;;;4985808;28;20038;-73
2022/11/27 07:13:49;;;;;;;14.93;6.68;;;7.00;91.30;;;;;;4986540;28;20053;-73
2022/11/27 07:16:16;;;;;;;17.73;7.03;;;7.00;91.30;;;;;;4988566;28;20035;-73
2022/11/27 07:18:45;;;;;;;14.13;6.82;;;7.00;91.30;;;;;;4984799;28;20101;-76
2022/11/27 07:21:11;;;;;;;16.98;6.90;;;7.00;91.20;;;;;;4991896;28;20474;-72
2022/11/27 07:23:37;;;;;;;17.98;7.00;;;7.00;91.30;;;;;;4986005;28;20080;-74
2022/11/27 07:26:06;;;;;;;16.02;6.95;;;6.90;91.30;;;;;;4988231;28;20074;-73
2022/11/27 07:28:32;;;;;;;15.57;7.05;;;7.00;91.40;;;;;;4982834;28;20562;-77
2022/11/27 07:30:58;;;;;;;15.57;8.18;;;7.00;91.30;;;;;;4995506;28;20098;-76
2022/11/27 07:33:24;;;;;;;15.93;6.90;;;7.00;91.20;;;;;;4982017;28;20044;-77
2022/11/27 07:36:01;;;;;;;19.73;8.35;;;7.00;91.30;;;;;;4991821;28;20466;-74
2022/11/27 07:38:26;;;;;;;18.02;7.65;;;7.00;91.40;;;;;;4984034;28;20085;-72
2022/11/27 07:40:52;;;;;;;15.25;6.82;;;7.00;91.40;;;;;;4993722;28;20030;-74
2022/11/27 07:43:18;;;;;;;17.08;7.55;;;7.00;91.20;;;;;;4987850;28;20056;-74
2022/11/27 07:45:43;;;;;;;15.05;7.47;;;7.00;91.40;;;;;;4989119;28;20030;-75
2022/11/27 07:48:09;;;;;;;18.17;8.02;;;7.00;91.40;;;;;;4993291;28;20542;-73
2022/11/27 07:50:35;;;;;;;15.48;7.30;;;7.00;91.40;;;;;;4984971;28;20403;-76
2022/11/27 07:53:00;;;;;;;14.75;7.40;;;7.00;91.50;;;;;;4979582;28;20053;-73
2022/11/27 07:55:26;;;;;;;14.07;6.70;;;6.90;91.40;;;;;;4975633;28;20034;-73
2022/11/27 07:57:51;;;;;;;12.95;7.10;;;7.00;91.40;;;;;;4983582;28;20042;-75
2022/11/27 08:00:17;;;;;;;17.05;7.15;;;7.00;91.50;;;;;;4980270;28;20041;-74
2022/11/27 08:02:43;;;;;;;19.77;7.07;;;7.00;91.40;;;;;;4984295;28;20335;-74
2022/11/27 08:05:09;;;;;;;16.23;7.60;;;7.00;91.30;;;;;;4981191;28;20046;-75
2022/11/27 08:07:34;;;;;;;14.48;7.60;;;7.00;91.40;;;;;;4984992;28;20033;-73
2022/11/27 08:10:00;;;;;;;15.32;7.82;;;7.00;91.30;;;;;;4983197;28;20042;-73
2022/11/27 08:12:26;;;;;;;14.98;7.25;;;7.00;91.30;;;;;;4983036;28;20030;-73
2022/11/27 08:14:51;;;;;;;17.15;7.85;;;7.00;91.30;;;;;;4986091;28;20065;-75
2022/11/27 08:17:17;;;;;;;13.07;7.38;;;7.00;91.30;;;;;;4981966;28;20038;-73
2022/11/27 08:19:43;;;;;;;17.20;10.35;;;7.00;91.40;;;;;;4983812;28;20045;-74
2022/11/27 08:22:13;;;;;;;17.13;9.35;;;7.00;91.30;;;;;;4983808;28;22160;-75
2022/11/27 08:24:38;;;;;;;16.77;8.15;;;7.00;91.50;;;;;;4996135;28;20053;-73
2022/11/27 08:27:04;;;;;;;15.00;8.30;;;7.10;91.50;;;;;;4982218;28;20026;-77
2022/11/27 08:29:30;;;;;;;15.65;9.23;;;7.00;91.60;;;;;;4991117;28;20046;-74
2022/11/27 08:31:55;;;;;;;15.88;8.57;;;7.10;91.60;;;;;;4986769;28;20042;-75
2022/11/27 08:34:21;;;;;;;15.20;8.43;;;7.10;91.50;;;;;;4982881;28;20133;-73
2022/11/27 08:36:46;;;;;;;16.42;9.73;;;7.00;91.60;;;;;;4982736;28;20093;-75
2022/11/27 08:39:13;;;;;;;18.50;9.15;;;7.10;91.60;;;;;;4983969;28;20026;-73
2022/11/27 08:41:39;;;;;;;17.15;10.65;;;7.00;91.40;;;;;;4982187;28;20346;-73
2022/11/27 08:44:04;;;;;;;13.93;7.28;;;7.10;91.60;;;;;;4977520;28;20871;-74
2022/11/27 08:46:30;;;;;;;17.70;8.15;;;7.00;91.60;;;;;;4982147;28;20031;-75
2022/11/27 08:48:57;;;;;;;14.75;8.30;;;7.00;91.70;;;;;;4986924;28;20034;-75
2022/11/27 08:51:23;;;;;;;16.95;8.02;;;7.00;91.80;;;;;;4984927;28;20041;-73
2022/11/27 08:53:48;;;;;;;16.20;8.10;;;7.00;91.80;;;;;;4986697;28;20046;-77
2022/11/27 08:56:20;;;;;;;17.35;7.82;;;7.10;91.80;;;;;;4986251;28;20074;-74
2022/11/27 08:58:46;;;;;;;18.23;8.18;;;7.10;91.70;;;;;;4986681;28;20026;-74
2022/11/27 09:01:24;;;;;;;15.57;7.60;;;7.10;91.70;;;;;;4998897;28;20359;-77
2022/11/27 09:03:51;;;;;;;21.70;12.27;;;7.10;91.90;;;;;;4988171;28;20053;-77
2022/11/27 09:06:20;;;;;;;17.27;8.05;;;7.10;91.80;;;;;;4967260;28;20402;-80
2022/11/27 09:08:46;;;;;;;19.70;9.85;;;7.10;91.70;;;;;;4980392;28;20031;-79
2022/11/27 09:11:13;;;;;;;18.42;10.75;;;7.10;91.70;;;;;;4981686;28;20046;-77
2022/11/27 09:13:40;;;;;;;18.10;10.23;;;7.10;91.70;;;;;;4986082;28;20133;-81
2022/11/27 09:16:08;;;;;;;16.10;8.35;;;7.10;91.70;;;;;;4983937;28;20490;-76
2022/11/27 09:18:34;;;;;;;14.60;8.07;;;7.10;91.70;;;;;;4981210;28;20049;-79
2022/11/27 09:21:02;;;;;;;15.68;8.80;;;7.10;91.60;;;;;;4986712;28;20042;-81
2022/11/27 09:23:28;;;;;;;14.88;9.00;;;7.10;91.70;;;;;;4985216;28;20054;-77
2022/11/27 09:26:01;;;;;;;16.08;8.27;;;7.10;91.70;;;;;;4982964;28;20026;-75
2022/11/27 09:28:27;;;;;;;18.60;9.02;;;7.10;91.70;;;;;;4983883;28;20038;-79
2022/11/27 09:30:57;;;;;;;16.77;7.80;;;7.20;91.50;;;;;;4984188;28;20485;-77
2022/11/27 09:33:24;;;;;;;16.92;8.20;;;7.20;91.40;;;;;;4986300;28;20053;-81
2022/11/27 09:35:50;;;;;;;18.65;8.75;;;7.20;91.30;;;;;;4985886;28;20399;-80
2022/11/27 09:38:16;;;;;;;16.83;9.13;;;7.20;91.50;;;;;;4987059;28;20041;-75
2022/11/27 09:40:49;;;;;;;19.17;8.70;;;7.20;91.40;;;;;;4978417;28;20479;-80
2022/11/27 09:43:16;;;;;;;17.15;8.43;;;7.10;91.50;;;;;;4981618;28;20045;-78
2022/11/27 09:45:50;;;;;;;16.40;8.50;;;7.20;91.60;;;;;;4981413;28;20038;-80
2022/11/27 09:48:27;;;;;;;15.00;8.00;;;7.20;91.60;;;;;;5000379;28;20027;-76
2022/11/27 09:50:54;;;;;;;16.55;8.75;;;7.10;91.50;;;;;;4983357;28;20042;-77
2022/11/27 09:53:44;;;;;;;17.98;8.15;;;7.20;91.50;;;;;;4988044;28;20379;-80
2022/11/27 09:56:13;;;;;;;15.43;8.50;;;7.20;91.50;;;;;;4983217;28;20026;-78
2022/11/27 09:58:41;;;;;;;16.95;9.13;;;7.30;91.50;;;;;;4984269;28;20423;-78
2022/11/27 10:01:21;;;;;;;18.77;9.20;;;7.20;91.40;;;;;;4983220;28;20042;-78
2022/11/27 10:03:47;;;;;;;13.73;7.72;;;7.30;91.50;;;;;;4982859;28;20038;-79
2022/11/27 10:06:37;;;;;;;15.82;8.70;;;7.20;91.50;;;;;;4982333;28;20359;-79
2022/11/27 10:09:27;;;;;;;17.73;7.90;;;7.30;91.60;;;;;;4986310;28;20053;-76
2022/11/27 10:12:32;;;;;;;14.73;8.30;;;7.40;91.60;;;;;;4985942;28;20038;-76
2022/11/27 10:14:58;;;;;;;16.67;8.98;;;7.40;91.40;;;;;;4980037;28;20054;-80
2022/11/27 10:17:39;;;;;;;14.00;8.10;;;7.40;91.30;;;;;;4989284;28;20048;-77
2022/11/27 10:20:29;;;;;;;19.38;8.98;;;7.50;91.40;;;;;;4981866;28;20042;-76
2022/11/27 10:23:13;;;;;;;13.23;8.10;;;7.50;91.50;;;;;;4983676;28;20124;-77
2022/11/27 10:25:51;;;;;;;16.38;9.25;;;7.50;91.40;;;;;;4984358;28;20427;-76
2022/11/27 10:28:25;;;;;;;17.95;8.75;;;7.50;91.50;;;;;;4982440;28;20041;-76
2022/11/27 10:31:02;;;;;;;22.15;10.20;;;7.50;91.40;;;;;;4983741;28;20121;-78
2022/11/27 10:33:46;;;;;;;15.80;8.63;;;7.60;91.30;;;;;;4987160;28;21670;-78
2022/11/27 10:36:20;;;;;;;18.58;9.10;;;7.60;91.30;;;;;;4983755;28;20046;-79
2022/11/27 10:38:47;;;;;;;17.42;8.50;;;7.60;91.30;;;;;;4989236;28;20038;-78
2022/11/27 10:41:23;;;;;;;16.05;8.52;;;7.70;91.30;;;;;;4982581;28;20113;-79
2022/11/27 10:43:53;;;;;;;14.40;8.57;;;7.70;91.20;;;;;;4989996;28;20123;-79
2022/11/27 10:46:30;;;;;;;14.77;8.23;;;7.60;90.90;;;;;;4982370;28;20371;-78
2022/11/27 10:48:57;;;;;;;15.63;8.10;;;7.50;91.20;;;;;;4986086;28;20439;-77
2022/11/27 10:51:34;;;;;;;18.42;9.00;;;7.60;91.20;;;;;;4984394;28;20022;-76
2022/11/27 10:54:02;;;;;;;16.60;9.35;;;7.50;91.50;;;;;;4983371;28;20033;-77
2022/11/27 10:56:55;;;;;;;16.17;9.00;;;7.50;91.40;;;;;;4979681;28;20062;-78
2022/11/27 10:59:26;;;;;;;17.83;9.93;;;7.50;91.40;;;;;;4990401;28;20041;-77
2022/11/27 11:01:52;;;;;;;17.83;10.43;;;7.50;91.60;;;;;;4978884;28;20046;-78
2022/11/27 11:04:26;;;;;;;21.10;10.15;;;7.50;91.70;;;;;;4998217;28;20042;-78
2022/11/27 11:06:51;;;;;;;19.67;10.95;;;7.60;91.70;;;;;;4989534;28;20027;-78
2022/11/27 11:09:30;;;;;;;21.38;12.80;;;7.60;91.70;;;;;;4979074;28;20832;-79
2022/11/27 11:12:08;;;;;;;21.33;10.48;;;7.60;91.80;;;;;;4980904;28;20381;-77
2022/11/27 11:14:33;;;;;;;17.52;8.57;;;7.60;91.80;;;;;;4985223;28;20038;-77
2022/11/27 11:16:59;;;;;;;18.38;8.60;;;7.60;91.70;;;;;;4984882;28;20030;-74
2022/11/27 11:19:30;;;;;;;19.60;11.05;;;7.60;91.60;;;;;;4985360;28;20132;-77
2022/11/27 11:21:58;;;;;;;19.92;9.43;;;7.60;91.80;;;;;;4982271;28;20034;-76
2022/11/27 11:24:32;;;;;;;17.73;9.43;;;7.70;91.60;;;;;;4979192;28;20042;-78
2022/11/27 11:26:59;;;;;;;20.83;11.00;;;7.60;91.80;;;;;;4981297;28;20092;-78
2022/11/27 11:29:26;;;;;;;18.23;9.98;;;7.70;91.90;;;;;;4984787;28;20411;-80
2022/11/27 11:31:54;;;;;;;17.40;9.40;;;7.70;91.90;;;;;;4975336;28;20150;-80
2022/11/27 11:34:26;;;;;;;20.30;9.77;;;7.70;91.70;;;;;;4976768;28;20128;-78
2022/11/27 11:37:06;;;;;;;18.60;11.32;;;7.70;91.90;;;;;;4982058;28;20034;-80
2022/11/27 11:39:43;;;;;;;16.65;9.90;;;7.70;91.90;;;;;;4979333;28;20042;-78
2022/11/27 11:42:18;;;;;;;19.60;10.32;;;7.70;91.90;;;;;;4976710;28;20042;-80
2022/11/27 11:44:49;;;;;;;18.05;10.77;;;7.70;92.00;;;;;;4978485;28;20047;-82
2022/11/27 11:47:18;;;;;;;16.83;9.60;;;7.70;92.10;;;;;;4981289;28;20418;-78
2022/11/27 11:49:43;;;;;;;17.58;10.23;;;7.70;92.10;;;;;;4981797;28;20030;-79
2022/11/27 11:52:57;;;;;;;20.15;10.85;;;7.60;92.20;;;;;;4982811;28;20060;-78
2022/11/27 11:55:35;;;;;;;17.15;10.20;;;7.70;92.30;;;;;;4980631;28;20120;-78
2022/11/27 11:58:01;;;;;;;18.98;10.57;;;7.70;92.40;;;;;;4988143;28;20046;-77
2022/11/27 12:00:42;;;;;;;24.65;14.65;;;7.70;92.40;;;;;;4984526;28;20046;-79
2022/11/27 12:03:33;;;;;;;19.15;11.13;;;7.70;92.40;;;;;;4986381;28;20088;-81
2022/11/27 12:06:36;;;;;;;17.05;10.77;;;7.70;92.20;;;;;;4983557;28;20412;-78
2022/11/27 12:09:37;;;;;;;21.00;10.80;;;7.80;92.10;;;;;;4977021;28;20038;-78
2022/11/27 12:12:24;;;;;;;26.98;14.88;;;7.80;92.00;;;;;;4977127;28;20029;-80
2022/11/27 12:14:59;;;;;;;33.08;19.75;;;7.90;91.90;;;;;;4978642;28;20138;-79
2022/11/27 12:17:30;;;;;;;21.52;12.05;;;7.90;91.90;;;;;;4977588;28;20475;-82
2022/11/27 12:20:25;;;;;;;31.85;18.65;;;7.90;91.70;;;;;;4981455;28;20104;-80
2022/11/27 12:23:21;;;;;;;39.85;25.15;;;7.90;91.70;;;;;;4978029;28;20764;-79
2022/11/27 12:26:16;;;;;;;33.65;21.80;;;8.00;91.60;;;;;;4982367;28;20038;-79
2022/11/27 12:29:12;;;;;;;30.88;17.38;;;8.00;91.60;;;;;;4981568;28;20039;-79
2022/11/27 12:31:41;;;;;;;19.88;12.65;;;8.10;91.50;;;;;;4986776;28;20118;-82
2022/11/27 12:34:19;;;;;;;19.48;9.43;;;8.00;91.20;;;;;;4988680;28;20130;-80
2022/11/27 12:37:06;;;;;;;20.17;13.15;;;8.00;91.20;;;;;;4988377;28;20030;-75
2022/11/27 12:39:55;;;;;;;18.38;12.43;;;8.00;91.20;;;;;;4985719;28;20471;-78
2022/11/27 12:42:33;;;;;;;18.27;12.68;;;8.10;91.20;;;;;;4985570;28;20038;-81
2022/11/27 12:45:10;;;;;;;17.92;9.85;;;8.00;91.20;;;;;;4991740;28;20099;-75
2022/11/27 12:47:55;;;;;;;20.90;11.75;;;8.00;91.30;;;;;;4986296;28;20042;-77
2022/11/27 12:50:49;;;;;;;18.27;10.68;;;8.00;91.40;;;;;;4989289;28;20033;-79
2022/11/27 12:53:22;;;;;;;20.30;12.77;;;7.90;91.50;;;;;;4984923;28;20030;-80
2022/11/27 12:55:59;;;;;;;16.80;11.45;;;7.90;91.70;;;;;;5000719;28;20096;-78
2022/11/27 12:58:34;;;;;;;18.92;11.38;;;7.90;91.70;;;;;;4999721;28;20445;-80
2022/11/27 13:01:08;;;;;;;16.73;10.70;;;8.00;91.60;;;;;;4978552;28;20046;-77